Time;durP1;ratioP1;P1;durP2;ratioP2;P2;SDS_P1;SDS_P2;PMS_P1;PMS_P2;Temp;Humidity;BMP_temperature;BMP_pressure;BME280_temperature;BME280_humidity;BME280_pressure;Samples;Min_cycle;Max_cycle;Signal;HPM_P1;HPM_P2
2021/07/01 00:01:54;;;;;;;9.13;7.10;;;;;;;13.64;81.43;99500.25;4974376;28;20415;-75
2021/07/01 00:04:20;;;;;;;8.65;7.00;;;;;;;13.66;81.65;99512.44;4958125;28;20050;-75
2021/07/01 00:06:45;;;;;;;9.13;7.75;;;;;;;13.67;81.69;99513.28;4973195;28;20035;-76
2021/07/01 00:09:15;;;;;;;8.48;7.47;;;;;;;13.64;81.05;99506.41;4974823;28;20126;-75
2021/07/01 00:11:52;;;;;;;9.05;8.15;;;;;;;13.64;81.07;99505.56;4974749;28;20038;-74
2021/07/01 00:14:18;;;;;;;8.75;7.80;;;;;;;13.64;81.79;99510.84;4974590;28;20061;-73
2021/07/01 00:16:45;;;;;;;9.75;7.50;;;;;;;13.62;81.35;99502.16;4942011;28;20035;-77
2021/07/01 00:19:10;;;;;;;8.48;7.68;;;;;;;13.61;81.36;99501.31;4975465;28;20062;-75
2021/07/01 00:21:35;;;;;;;10.65;7.25;;;;;;;13.58;81.89;99506.78;4956325;28;20030;-74
2021/07/01 00:24:01;;;;;;;11.23;8.18;;;;;;;13.56;81.46;99505.19;4973412;28;20090;-75
2021/07/01 00:26:26;;;;;;;9.52;8.00;;;;;;;13.56;81.90;99507.84;4973231;28;20158;-75
2021/07/01 00:28:52;;;;;;;9.02;6.68;;;;;;;13.53;81.77;99512.38;4973289;28;20045;-75
2021/07/01 00:31:17;;;;;;;7.70;6.28;;;;;;;13.50;81.89;99511.75;4973144;28;20117;-74
2021/07/01 00:33:43;;;;;;;8.13;5.47;;;;;;;13.50;81.45;99515.25;4973492;28;20419;-74
2021/07/01 00:36:08;;;;;;;7.05;5.70;;;;;;;13.53;81.57;99507.09;4973675;28;20042;-76
2021/07/01 00:38:40;;;;;;;6.07;5.15;;;;;;;13.57;81.96;99517.50;4974164;28;21841;-76
2021/07/01 00:41:05;;;;;;;5.40;4.85;;;;;;;13.56;82.10;99513.16;4975138;28;20395;-75
2021/07/01 00:43:30;;;;;;;8.20;5.30;;;;;;;13.56;81.60;99515.78;4975870;28;20031;-75
2021/07/01 00:45:56;;;;;;;7.75;5.05;;;;;;;13.53;81.35;99517.69;4973149;28;20093;-74
2021/07/01 00:48:21;;;;;;;7.95;5.25;;;;;;;13.57;81.63;99515.69;4993880;28;20034;-75
2021/07/01 00:50:50;;;;;;;7.45;5.30;;;;;;;13.61;81.93;99518.97;4993880;28;20030;-75
2021/07/01 00:53:15;;;;;;;4.72;4.20;;;;;;;13.63;81.82;99515.28;4992847;28;20042;-75
2021/07/01 00:55:40;;;;;;;4.72;4.18;;;;;;;13.66;81.73;99514.22;4992879;28;20047;-75
2021/07/01 00:58:06;;;;;;;4.38;3.92;;;;;;;13.66;81.52;99514.22;4991909;28;20033;-75
2021/07/01 01:02:58;;;;;;;4.57;3.45;;;;;;;13.63;81.66;99514.44;4975923;28;20038;-76
2021/07/01 01:05:23;;;;;;;5.93;3.97;;;;;;;13.57;81.41;99515.69;4996616;28;20049;-75
2021/07/01 01:07:49;;;;;;;5.25;3.50;;;;;;;13.55;82.26;99517.59;5009705;28;20038;-74
2021/07/01 01:10:15;;;;;;;3.75;2.92;;;;;;;13.56;82.29;99511.38;5008644;28;20031;-76
2021/07/01 01:12:40;;;;;;;4.07;2.95;;;;;;;13.55;82.51;99512.31;5009778;28;20038;-74
2021/07/01 01:15:06;;;;;;;4.00;3.42;;;;;;;13.54;82.16;99505.31;4994609;28;20058;-76
2021/07/01 01:17:31;;;;;;;4.15;3.15;;;;;;;13.50;81.70;99506.47;4991810;28;20033;-76
2021/07/01 01:19:57;;;;;;;3.88;2.83;;;;;;;13.47;82.02;99506.66;4991381;28;20034;-75
2021/07/01 01:22:24;;;;;;;4.60;3.00;;;;;;;13.48;82.29;99511.00;4991537;28;20162;-76
2021/07/01 01:24:49;;;;;;;3.83;3.00;;;;;;;13.48;82.21;99503.91;4991458;28;20372;-76
2021/07/01 01:27:15;;;;;;;3.70;3.05;;;;;;;13.47;81.89;99504.88;4974509;28;20117;-76
2021/07/01 01:29:40;;;;;;;4.68;2.97;;;;;;;13.47;82.20;99499.56;4991238;28;20042;-76
2021/07/01 01:32:06;;;;;;;3.28;2.97;;;;;;;13.46;82.68;99504.94;4990997;28;20034;-76
2021/07/01 01:34:32;;;;;;;15.65;2.97;;;;;;;13.47;82.81;99499.56;4973824;28;20034;-76
2021/07/01 01:36:57;;;;;;;4.43;2.90;;;;;;;13.45;83.02;99503.25;4991126;28;20392;-76
2021/07/01 01:39:22;;;;;;;3.05;2.25;;;;;;;13.43;82.28;99499.88;4990735;28;20062;-76
2021/07/01 01:41:48;;;;;;;6.38;3.10;;;;;;;13.42;82.56;99500.81;4990169;28;20030;-75
2021/07/01 01:44:13;;;;;;;3.83;2.70;;;;;;;13.43;83.55;99499.88;4973826;28;20098;-76
2021/07/01 01:46:40;;;;;;;5.70;3.67;;;;;;;13.44;82.73;99497.13;4971067;28;20034;-76
2021/07/01 01:49:06;;;;;;;5.65;3.42;;;;;;;13.46;82.91;99491.72;4970898;28;20038;-73
2021/07/01 01:51:33;;;;;;;4.93;4.05;;;;;;;13.47;82.93;99498.72;4970638;28;20113;-75
2021/07/01 01:53:58;;;;;;;5.72;4.65;;;;;;;13.45;82.63;99501.47;4953174;28;20047;-74
2021/07/01 01:56:24;;;;;;;5.80;4.35;;;;;;;13.44;82.08;99505.06;4970350;28;20120;-75
2021/07/01 01:58:49;;;;;;;6.13;4.60;;;;;;;13.43;82.46;99498.06;4971505;28;20035;-74
2021/07/01 02:01:15;;;;;;;6.10;4.85;;;;;;;13.47;82.71;99506.66;4970958;28;20039;-74
2021/07/01 02:03:40;;;;;;;6.65;5.35;;;;;;;13.52;82.26;99496.63;4970706;28;20122;-74
2021/07/01 02:06:05;;;;;;;6.90;5.65;;;;;;;13.51;82.56;99498.44;4970783;28;20113;-73
2021/07/01 02:08:32;;;;;;;8.70;5.32;;;;;;;13.54;82.36;99505.31;4953138;28;20035;-73
2021/07/01 02:10:58;;;;;;;7.80;5.13;;;;;;;13.57;82.32;99494.50;4970230;28;20046;-73
2021/07/01 02:13:23;;;;;;;8.25;5.65;;;;;;;13.55;81.99;99499.06;4970859;28;20042;-73
2021/07/01 02:15:48;;;;;;;6.07;5.50;;;;;;;13.56;82.12;99511.38;4971279;28;20038;-73
2021/07/01 02:18:14;;;;;;;11.45;5.85;;;;;;;13.57;81.89;99510.41;4969592;28;20035;-72
2021/07/01 02:20:39;;;;;;;11.65;6.63;;;;;;;13.62;82.60;99512.75;4971114;28;20080;-73
2021/07/01 02:23:05;;;;;;;7.40;6.45;;;;;;;13.65;81.95;99517.84;4970514;28;20434;-73
2021/07/01 02:25:34;;;;;;;8.25;6.40;;;;;;;13.65;81.64;99517.84;4971089;28;20031;-74
2021/07/01 02:28:00;;;;;;;9.40;6.15;;;;;;;13.69;81.45;99511.41;4970335;28;20110;-74
2021/07/01 02:30:25;;;;;;;9.15;7.20;;;;;;;13.66;81.40;99508.94;4970530;28;20121;-74
2021/07/01 02:32:51;;;;;;;11.13;7.75;;;;;;;13.65;81.42;99512.53;4970290;28;20035;-75
2021/07/01 02:35:16;;;;;;;11.00;7.78;;;;;;;13.65;81.41;99507.25;4971256;28;20498;-74
2021/07/01 02:37:43;;;;;;;9.30;7.53;;;;;;;13.64;81.86;99514.34;4971248;28;20450;-74
2021/07/01 02:40:15;;;;;;;10.95;8.32;;;;;;;13.65;81.89;99517.84;4971612;28;20118;-74
2021/07/01 02:42:42;;;;;;;9.57;8.60;;;;;;;13.62;81.83;99507.47;4970598;28;20114;-73
2021/07/01 02:45:09;;;;;;;13.23;9.52;;;;;;;13.59;81.50;99508.50;4972791;28;20049;-74
2021/07/01 02:47:34;;;;;;;15.52;9.63;;;;;;;13.57;81.42;99505.09;4970164;28;20035;-73
2021/07/01 02:49:59;;;;;;;12.60;9.35;;;;;;;13.55;81.40;99511.47;4970535;28;20046;-74
2021/07/01 02:52:25;;;;;;;17.58;10.68;;;;;;;13.55;81.61;99512.31;4953124;28;20065;-74
2021/07/01 02:54:50;;;;;;;13.10;9.98;;;;;;;13.54;81.47;99513.25;4947563;28;20043;-73
2021/07/01 02:57:16;;;;;;;13.27;8.90;;;;;;;13.52;81.77;99515.16;4967799;28;20031;-73
2021/07/01 02:59:41;;;;;;;12.07;9.55;;;;;;;13.50;81.79;99509.09;4969703;28;20376;-74
2021/07/01 03:02:06;;;;;;;12.30;9.07;;;;;;;13.49;81.36;99505.63;4969865;28;20035;-74
2021/07/01 03:04:32;;;;;;;15.13;8.70;;;;;;;13.49;82.25;99507.41;4969985;28;20066;-73
2021/07/01 03:06:57;;;;;;;11.48;9.10;;;;;;;13.50;82.15;99511.75;4969643;28;20053;-73
2021/07/01 03:09:23;;;;;;;12.75;9.52;;;;;;;13.50;81.42;99504.66;4970306;28;20047;-74
2021/07/01 03:11:48;;;;;;;11.82;8.93;;;;;;;13.49;82.36;99502.13;4969522;28;20039;-73
2021/07/01 03:14:14;;;;;;;11.43;8.18;;;;;;;13.53;82.95;99514.19;4969687;28;20459;-73
2021/07/01 03:16:39;;;;;;;12.50;8.95;;;;;;;13.50;82.34;99509.09;4969970;28;20046;-72
2021/07/01 03:19:05;;;;;;;16.35;9.15;;;;;;;13.49;82.94;99502.97;4970029;28;20039;-74
2021/07/01 03:21:30;;;;;;;13.32;8.82;;;;;;;13.46;82.36;99508.47;4969769;28;20030;-75
2021/07/01 03:23:55;;;;;;;11.32;8.48;;;;;;;13.42;82.76;99514.91;4969974;28;20035;-74
2021/07/01 03:26:21;;;;;;;10.48;8.45;;;;;;;13.41;82.61;99512.34;4952799;28;20109;-73
2021/07/01 03:28:47;;;;;;;9.25;6.55;;;;;;;13.39;83.33;99506.31;4971084;28;20023;-75
2021/07/01 03:31:12;;;;;;;9.18;5.95;;;;;;;13.36;83.38;99504.72;4973252;28;20113;-74
2021/07/01 03:33:38;;;;;;;9.25;6.55;;;;;;;13.37;83.02;99508.22;4973024;28;20557;-72
2021/07/01 03:36:05;;;;;;;9.32;5.97;;;;;;;13.37;82.85;99510.88;4973027;28;20046;-72
2021/07/01 03:38:31;;;;;;;5.85;4.90;;;;;;;13.37;83.72;99509.06;4972944;28;20046;-74
2021/07/01 03:40:56;;;;;;;10.77;7.07;;;;;;;13.38;83.01;99510.75;4973194;28;20039;-74
2021/07/01 03:43:22;;;;;;;12.93;8.30;;;;;;;13.29;82.71;99514.88;4973388;28;20093;-74
2021/07/01 03:45:47;;;;;;;13.98;8.50;;;;;;;13.27;83.16;99513.28;4955751;28;20027;-74
2021/07/01 03:48:13;;;;;;;14.70;9.77;;;;;;;13.26;82.87;99509.72;4972713;28;20398;-74
2021/07/01 03:50:40;;;;;;;19.73;10.88;;;;;;;13.25;82.37;99509.84;4980150;28;20042;-75
2021/07/01 03:53:05;;;;;;;14.27;9.57;;;;;;;13.23;81.84;99509.91;4993140;28;20050;-74
2021/07/01 03:55:31;;;;;;;18.02;11.35;;;;;;;13.18;82.09;99514.66;4992328;28;20105;-73
2021/07/01 03:57:56;;;;;;;21.63;10.82;;;;;;;13.21;81.97;99510.97;4992294;28;20070;-74
2021/07/01 04:00:22;;;;;;;18.67;10.88;;;;;;;13.16;81.32;99513.91;4992686;28;20570;-74
2021/07/01 04:02:47;;;;;;;21.60;13.20;;;;;;;13.15;82.00;99511.38;4992553;28;20421;-74
2021/07/01 04:05:13;;;;;;;19.75;11.10;;;;;;;13.17;82.04;99518.28;4992588;28;20494;-75
2021/07/01 04:07:39;;;;;;;29.23;14.32;;;;;;;13.15;81.96;99509.56;4992466;28;20117;-74
2021/07/01 04:10:07;;;;;;;27.88;13.02;;;;;;;13.14;82.17;99513.16;4993286;28;20038;-74
2021/07/01 04:12:36;;;;;;;27.25;15.00;;;;;;;13.16;82.06;99521.00;4992681;28;20100;-74
2021/07/01 04:15:03;;;;;;;23.83;12.88;;;;;;;13.20;82.20;99527.81;4993429;28;20513;-75
2021/07/01 04:17:28;;;;;;;21.65;15.45;;;;;;;13.18;81.98;99530.53;4991789;28;20043;-75
2021/07/01 04:19:53;;;;;;;23.73;15.30;;;;;;;13.17;81.93;99522.69;4992931;28;20038;-75
2021/07/01 04:22:19;;;;;;;22.90;16.38;;;;;;;13.18;81.78;99524.41;4975765;28;20085;-73
2021/07/01 04:24:44;;;;;;;27.77;18.55;;;;;;;13.13;82.33;99530.00;4992410;28;20034;-74
2021/07/01 04:27:10;;;;;;;22.60;16.95;;;;;;;13.14;83.15;99523.75;4993331;28;20054;-74
2021/07/01 04:29:35;;;;;;;31.42;18.13;;;;;;;13.15;81.99;99527.25;4991744;28;20069;-74
2021/07/01 04:32:00;;;;;;;24.38;16.48;;;;;;;13.15;82.42;99529.91;4991748;28;20034;-74
2021/07/01 04:34:26;;;;;;;27.50;17.77;;;;;;;13.14;81.67;99538.78;4991842;28;20561;-75
2021/07/01 04:36:51;;;;;;;25.13;16.02;;;;;;;13.14;82.15;99542.28;4991942;28;20528;-74
2021/07/01 04:39:17;;;;;;;23.00;16.25;;;;;;;13.15;82.02;99543.97;4988351;28;20046;-74
2021/07/01 04:41:43;;;;;;;26.05;18.77;;;;;;;13.17;82.11;99542.09;4991457;28;20117;-74
2021/07/01 04:44:08;;;;;;;32.97;19.08;;;;;;;13.18;81.83;99546.44;4991836;28;20034;-75
2021/07/01 04:46:34;;;;;;;30.75;18.55;;;;;;;13.20;81.93;99541.91;4991389;28;20109;-72
2021/07/01 04:48:59;;;;;;;31.40;17.05;;;;;;;13.22;81.77;99547.94;4991969;28;20118;-74
2021/07/01 04:51:25;;;;;;;26.45;17.58;;;;;;;13.25;81.74;99553.03;4976834;28;20034;-73
2021/07/01 04:53:51;;;;;;;22.08;16.70;;;;;;;13.22;81.62;99553.25;4972767;28;20491;-74
2021/07/01 04:56:18;;;;;;;23.42;15.48;;;;;;;13.22;80.94;99555.88;4985666;28;20062;-75
2021/07/01 04:58:44;;;;;;;29.60;16.80;;;;;;;13.22;80.93;99547.94;4990940;28;20085;-74
2021/07/01 05:01:09;;;;;;;29.00;16.15;;;;;;;13.26;81.22;99553.88;4990861;28;20050;-73
2021/07/01 05:03:35;;;;;;;24.48;15.88;;;;;;;13.25;80.56;99545.09;4991787;28;20074;-73
2021/07/01 05:06:01;;;;;;;28.92;14.68;;;;;;;13.23;80.66;99544.34;4992039;28;20058;-73
2021/07/01 05:08:26;;;;;;;26.13;14.88;;;;;;;13.26;80.86;99540.63;4992846;28;20398;-74
2021/07/01 05:10:52;;;;;;;22.45;14.85;;;;;;;13.27;79.67;99547.69;4995164;28;20726;-74
2021/07/01 05:13:18;;;;;;;27.23;16.42;;;;;;;13.24;80.28;99540.75;4994527;28;20038;-75
2021/07/01 05:15:43;;;;;;;31.08;15.73;;;;;;;13.25;80.24;99545.09;4998693;28;20034;-76
2021/07/01 05:18:08;;;;;;;28.45;14.80;;;;;;;13.22;80.31;99549.75;4994842;28;20123;-76
2021/07/01 05:20:34;;;;;;;27.13;15.43;;;;;;;13.22;80.23;99549.75;4995146;28;20041;-76
2021/07/01 05:22:59;;;;;;;28.23;15.77;;;;;;;13.23;80.48;99543.50;4995868;28;20053;-75
2021/07/01 05:25:24;;;;;;;29.40;14.88;;;;;;;13.20;80.67;99544.53;4998596;28;20030;-73
2021/07/01 05:27:50;;;;;;;21.98;13.38;;;;;;;13.17;80.25;99543.88;4995482;28;20030;-73
2021/07/01 05:30:16;;;;;;;27.10;14.55;;;;;;;13.16;79.89;99547.47;4994566;28;20054;-73
2021/07/01 05:32:41;;;;;;;23.17;16.50;;;;;;;13.16;79.76;99547.47;4993610;28;20069;-73
2021/07/01 05:35:07;;;;;;;23.33;14.23;;;;;;;13.17;80.07;99555.34;4992489;28;20053;-75
2021/07/01 05:37:33;;;;;;;29.58;14.38;;;;;;;13.19;80.24;99541.97;4991163;28;20045;-74
2021/07/01 05:39:58;;;;;;;25.17;14.77;;;;;;;13.21;79.95;99540.09;4991298;28;20121;-75
2021/07/01 05:42:24;;;;;;;27.23;16.30;;;;;;;13.24;79.82;99545.19;4989223;28;20502;-74
2021/07/01 05:44:49;;;;;;;28.52;16.10;;;;;;;13.24;79.87;99543.41;4990535;28;20054;-74
2021/07/01 05:47:15;;;;;;;30.83;18.10;;;;;;;13.24;80.40;99539.88;4990687;28;20038;-74
2021/07/01 05:49:40;;;;;;;30.23;18.77;;;;;;;13.21;79.71;99540.09;4990447;28;20038;-74
2021/07/01 05:52:07;;;;;;;32.85;17.63;;;;;;;13.26;79.81;99543.28;4989420;28;20035;-74
2021/07/01 05:54:37;;;;;;;34.33;16.08;;;;;;;13.28;79.77;99549.38;4990331;28;20524;-74
2021/07/01 05:57:04;;;;;;;31.88;16.80;;;;;;;13.31;80.50;99546.50;4989654;28;20045;-74
2021/07/01 05:59:30;;;;;;;27.27;18.45;;;;;;;13.30;80.31;99550.97;4990193;28;20088;-74
2021/07/01 06:01:55;;;;;;;35.97;17.33;;;;;;;13.35;80.65;99547.19;4990363;28;20034;-74
2021/07/01 06:04:20;;;;;;;30.88;17.30;;;;;;;13.42;80.37;99544.03;4991112;28;20034;-73
2021/07/01 06:06:54;;;;;;;27.48;18.75;;;;;;;13.45;79.54;99549.13;4990276;28;20034;-74
2021/07/01 06:09:22;;;;;;;25.35;16.17;;;;;;;13.48;79.50;99551.56;4972732;28;20038;-74
2021/07/01 06:11:53;;;;;;;35.08;18.70;;;;;;;13.48;78.84;99546.28;4989962;28;20041;-74
2021/07/01 06:14:19;;;;;;;29.05;19.05;;;;;;;13.53;78.81;99553.91;4989944;28;20089;-73
2021/07/01 06:16:45;;;;;;;29.98;16.98;;;;;;;13.57;78.99;99546.66;4989571;28;20852;-73
2021/07/01 06:19:11;;;;;;;28.83;16.35;;;;;;;13.61;78.45;99550.78;4989840;28;20410;-74
2021/07/01 06:21:37;;;;;;;27.52;16.65;;;;;;;13.69;78.90;99551.13;4989716;28;20035;-74
2021/07/01 06:24:03;;;;;;;29.38;17.33;;;;;;;13.78;78.86;99553.16;4989685;28;20500;-73
2021/07/01 06:26:29;;;;;;;27.05;18.08;;;;;;;13.88;78.35;99548.97;4989154;28;20030;-73
2021/07/01 06:28:56;;;;;;;27.17;15.98;;;;;;;14.01;77.37;99551.63;4990362;28;20680;-75
2021/07/01 06:31:22;;;;;;;25.48;13.48;;;;;;;14.05;76.45;99557.56;4977886;28;20039;-75
2021/07/01 06:33:48;;;;;;;23.75;13.98;;;;;;;14.14;76.60;99554.31;4970159;28;20053;-75
2021/07/01 06:36:19;;;;;;;20.52;13.75;;;;;;;14.19;75.45;99552.19;4970318;28;20039;-74
2021/07/01 06:38:52;;;;;;;28.52;13.82;;;;;;;14.24;76.17;99555.38;4970125;28;20529;-73
2021/07/01 06:41:19;;;;;;;27.90;15.65;;;;;;;14.34;76.24;99550.28;4969472;28;20042;-75
2021/07/01 06:43:51;;;;;;;24.20;14.23;;;;;;;14.41;75.49;99559.53;4970521;28;20736;-74
2021/07/01 06:46:17;;;;;;;21.65;13.82;;;;;;;14.39;74.96;99556.97;4937771;28;20055;-73
2021/07/01 06:48:43;;;;;;;23.52;12.20;;;;;;;14.40;75.00;99557.84;4970911;28;20047;-76
2021/07/01 06:51:09;;;;;;;22.52;11.57;;;;;;;14.43;73.71;99557.63;4970816;28;20038;-76
2021/07/01 06:53:38;;;;;;;21.02;11.27;;;;;;;14.43;73.94;99556.78;4971550;28;20120;-75
2021/07/01 06:56:03;;;;;;;18.67;10.10;;;;;;;14.41;74.11;99559.53;4971048;28;20741;-74
2021/07/01 06:58:30;;;;;;;30.58;11.18;;;;;;;14.39;74.73;99559.63;4971003;28;20035;-75
2021/07/01 07:00:56;;;;;;;18.00;10.00;;;;;;;14.31;73.03;99563.78;4972536;28;20053;-73
2021/07/01 07:03:22;;;;;;;20.05;11.07;;;;;;;14.33;74.47;99554.75;4954732;28;20049;-74
2021/07/01 07:05:50;;;;;;;20.10;10.05;;;;;;;14.35;73.40;99560.81;4974071;28;20045;-73
2021/07/01 07:08:15;;;;;;;21.42;11.27;;;;;;;14.45;73.50;99561.03;4973983;28;20379;-74
2021/07/01 07:10:43;;;;;;;20.77;12.80;;;;;;;14.56;74.65;99563.81;4973889;28;20027;-73
2021/07/01 07:13:08;;;;;;;21.45;13.32;;;;;;;14.50;73.85;99566.84;4973184;28;20077;-74
2021/07/01 07:15:34;;;;;;;19.55;9.93;;;;;;;14.46;73.28;99561.88;4973902;28;20498;-74
2021/07/01 07:18:17;;;;;;;18.50;9.68;;;;;;;14.77;73.61;99569.44;4973457;28;20050;-48
2021/07/01 07:20:44;;;;;;;21.00;10.35;;;;;;;15.05;71.40;99572.78;4973964;28;20039;-49
2021/07/01 07:23:14;;;;;;;22.15;10.85;;;;;;;15.27;70.19;99576.56;4973895;28;20035;-47
2021/07/01 07:25:41;;;;;;;19.02;10.52;;;;;;;15.35;69.01;99583.00;4973739;28;20030;-51
2021/07/01 07:28:09;;;;;;;23.90;9.63;;;;;;;15.27;69.75;99589.84;4973237;28;20039;-54
2021/07/01 07:30:35;;;;;;;17.90;9.20;;;;;;;15.33;69.41;99589.38;4973141;28;20039;-55
2021/07/01 07:33:06;;;;;;;19.65;10.13;;;;;;;15.32;69.24;99587.69;4974476;28;20542;-54
2021/07/01 07:35:32;;;;;;;20.45;9.27;;;;;;;15.25;69.41;99593.44;4975344;28;20031;-52
2021/07/01 07:37:59;;;;;;;20.48;9.57;;;;;;;15.28;69.61;99591.53;4976407;28;20097;-50
2021/07/01 07:40:26;;;;;;;19.27;9.25;;;;;;;15.33;68.82;99592.88;4974768;28;20031;-50
2021/07/01 07:42:51;;;;;;;17.48;8.57;;;;;;;15.34;69.97;99591.94;4978298;28;20131;-51
2021/07/01 07:45:16;;;;;;;18.95;8.98;;;;;;;15.37;69.19;99591.72;4985227;28;20074;-56
2021/07/01 07:47:42;;;;;;;17.02;9.27;;;;;;;15.31;70.04;99594.84;4958144;28;20042;-53
2021/07/01 07:50:10;;;;;;;16.67;8.82;;;;;;;15.32;69.60;99596.50;4959987;28;20043;-50
2021/07/01 07:52:44;;;;;;;16.35;7.68;;;;;;;15.31;69.36;99596.63;4960445;28;20038;-49
2021/07/01 07:55:10;;;;;;;18.60;8.32;;;;;;;15.42;69.15;99592.22;4965011;28;20082;-51
2021/07/01 07:57:38;;;;;;;14.77;8.32;;;;;;;15.55;68.64;99596.66;4977551;28;21287;-50
2021/07/01 08:00:04;;;;;;;20.27;9.35;;;;;;;15.67;68.46;99590.44;4975592;28;20042;-54
2021/07/01 08:02:46;;;;;;;17.95;9.35;;;;;;;15.82;67.58;99601.78;4977356;28;20142;-50
2021/07/01 08:05:14;;;;;;;18.17;8.50;;;;;;;15.91;66.73;99595.78;4975554;28;20069;-56
2021/07/01 08:07:40;;;;;;;15.27;7.88;;;;;;;15.94;66.55;99590.22;4966332;28;20043;-53
2021/07/01 08:10:09;;;;;;;15.40;6.85;;;;;;;15.98;66.17;99590.88;4966074;28;20031;-51
2021/07/01 08:12:41;;;;;;;12.73;7.22;;;;;;;15.93;66.92;99588.56;4966757;28;20604;-49
2021/07/01 08:15:12;;;;;;;10.85;7.05;;;;;;;15.92;66.10;99592.16;4949581;28;20554;-53
2021/07/01 08:17:42;;;;;;;16.77;7.88;;;;;;;15.91;66.30;99590.47;4967752;28;20459;-53
2021/07/01 08:20:10;;;;;;;13.27;6.97;;;;;;;15.92;66.75;99589.50;4968282;28;20046;-54
2021/07/01 08:22:37;;;;;;;15.00;8.27;;;;;;;15.91;66.29;99586.97;4968568;28;20046;-56
2021/07/01 08:25:02;;;;;;;12.38;5.93;;;;;;;15.93;66.12;99587.72;4967649;28;20066;-48
2021/07/01 08:27:29;;;;;;;18.83;6.78;;;;;;;15.97;65.83;99590.00;4967202;28;20038;-51
2021/07/01 08:29:56;;;;;;;12.48;7.30;;;;;;;15.97;65.50;99589.16;4980845;28;20045;-56
2021/07/01 08:32:22;;;;;;;13.88;7.80;;;;;;;15.97;66.11;99578.53;4985480;28;20140;-50
2021/07/01 08:34:48;;;;;;;9.45;6.75;;;;;;;16.13;65.66;99586.22;4985954;28;20065;-54
2021/07/01 08:37:16;;;;;;;13.32;8.00;;;;;;;16.24;64.64;99580.91;4986602;28;20441;-49
2021/07/01 08:39:42;;;;;;;13.32;6.82;;;;;;;16.21;64.42;99582.00;4974959;28;20037;-75
2021/07/01 08:42:13;;;;;;;15.55;7.18;;;;;;;15.97;65.71;99587.34;4970479;28;20038;-74
2021/07/01 08:44:45;;;;;;;10.45;6.78;;;;;;;15.80;66.07;99593.94;4972480;28;20034;-76
2021/07/01 08:47:18;;;;;;;18.13;8.50;;;;;;;15.68;66.51;99586.84;4969098;28;20070;-75
2021/07/01 08:49:52;;;;;;;15.48;8.73;;;;;;;15.56;66.53;99593.91;4970260;28;20031;-76
2021/07/01 08:52:22;;;;;;;13.20;7.90;;;;;;;15.44;67.52;99590.31;4969942;28;20042;-77
2021/07/01 08:54:48;;;;;;;16.33;9.70;;;;;;;15.45;67.54;99597.31;4963052;28;20035;-76
2021/07/01 08:57:15;;;;;;;14.50;7.82;;;;;;;15.40;66.94;99596.81;4958106;28;20531;-76
2021/07/01 08:59:54;;;;;;;15.02;8.45;;;;;;;15.26;66.95;99599.63;4974403;28;20065;-75
2021/07/01 09:02:24;;;;;;;18.95;7.53;;;;;;;15.16;66.77;99603.88;4948920;28;20035;-76
2021/07/01 09:04:57;;;;;;;15.80;7.50;;;;;;;15.15;67.73;99612.81;4966196;28;20069;-77
2021/07/01 09:07:25;;;;;;;13.90;8.82;;;;;;;15.08;67.92;99614.19;4946057;28;20602;-78
2021/07/01 09:09:57;;;;;;;15.60;8.73;;;;;;;15.07;67.80;99613.34;4943758;28;20035;-74
2021/07/01 09:12:25;;;;;;;15.45;7.55;;;;;;;15.05;67.22;99615.25;4949096;28;20038;-76
2021/07/01 09:15:06;;;;;;;12.90;7.95;;;;;;;14.96;67.64;99619.44;4965286;28;20542;-76
2021/07/01 09:17:34;;;;;;;14.63;7.03;;;;;;;14.90;67.73;99614.53;4966196;28;20038;-77
2021/07/01 09:20:03;;;;;;;14.88;7.28;;;;;;;14.84;67.81;99614.09;4966274;28;20114;-74
2021/07/01 09:22:29;;;;;;;15.27;8.32;;;;;;;14.84;68.14;99612.31;4959912;28;20775;-77
2021/07/01 09:24:56;;;;;;;11.95;8.07;;;;;;;14.95;67.84;99627.50;4966787;28;20133;-75
2021/07/01 09:27:23;;;;;;;12.63;8.02;;;;;;;14.96;68.05;99615.91;4965565;28;20051;-76
2021/07/01 09:29:50;;;;;;;10.02;6.43;;;;;;;15.01;67.98;99614.66;4965205;28;20034;-76
2021/07/01 09:32:18;;;;;;;16.65;7.00;;;;;;;15.04;67.67;99610.91;4966874;28;20059;-75
2021/07/01 09:34:45;;;;;;;18.13;8.20;;;;;;;15.07;67.56;99620.47;4968068;28;20663;-74
2021/07/01 09:37:10;;;;;;;13.48;7.80;;;;;;;14.99;67.36;99619.22;4968427;28;20047;-77
2021/07/01 09:39:37;;;;;;;11.52;5.82;;;;;;;15.09;67.98;99616.75;4965212;28;20058;-75
2021/07/01 09:42:04;;;;;;;11.73;6.68;;;;;;;15.18;67.33;99623.19;4985473;28;20035;-77
2021/07/01 09:44:32;;;;;;;12.48;7.28;;;;;;;15.22;67.57;99620.22;4972460;28;20038;-77
2021/07/01 09:46:59;;;;;;;12.50;7.47;;;;;;;15.28;67.45;99624.25;4967353;28;20053;-75
2021/07/01 09:49:43;;;;;;;10.25;6.93;;;;;;;15.34;66.70;99623.81;4949106;28;20057;-76
2021/07/01 09:52:11;;;;;;;8.68;6.30;;;;;;;15.36;65.90;99626.38;4946613;28;20109;-75
2021/07/01 09:54:39;;;;;;;12.43;6.05;;;;;;;15.43;66.81;99624.94;4964388;28;20495;-74
2021/07/01 09:57:13;;;;;;;10.40;6.30;;;;;;;15.53;65.98;99633.09;4947366;28;20042;-79
2021/07/01 09:59:47;;;;;;;11.43;6.50;;;;;;;15.52;65.45;99626.94;4981127;28;20034;-76
2021/07/01 10:02:18;;;;;;;15.10;7.30;;;;;;;15.55;65.89;99629.38;4954327;28;20031;-74
2021/07/01 10:04:45;;;;;;;14.38;7.25;;;;;;;15.54;65.24;99633.00;4965211;28;20574;-75
2021/07/01 10:07:15;;;;;;;11.65;6.45;;;;;;;15.57;65.71;99634.59;4964747;28;20134;-75
2021/07/01 10:09:42;;;;;;;13.45;6.20;;;;;;;15.60;65.70;99632.56;4965774;28;20129;-74
2021/07/01 10:12:21;;;;;;;29.85;7.07;;;;;;;15.72;64.92;99632.66;4966373;28;20117;-77
2021/07/01 10:14:49;;;;;;;8.35;5.32;;;;;;;15.69;65.11;99628.38;4966098;28;20805;-77
2021/07/01 10:17:19;;;;;;;12.30;5.55;;;;;;;15.76;64.85;99620.84;4965747;28;20565;-79
2021/07/01 10:19:46;;;;;;;7.20;5.10;;;;;;;15.84;64.62;99635.25;4948904;28;20077;-77
2021/07/01 10:22:18;;;;;;;13.57;6.05;;;;;;;15.87;63.34;99634.19;4965831;28;20027;-75
2021/07/01 10:24:54;;;;;;;9.57;6.35;;;;;;;15.96;64.17;99635.34;4967627;28;20097;-76
2021/07/01 10:27:41;;;;;;;11.25;5.85;;;;;;;15.98;63.88;99631.59;4966843;28;20130;-76
2021/07/01 10:30:20;;;;;;;9.93;6.30;;;;;;;16.02;63.50;99629.53;4973605;28;20049;-75
2021/07/01 10:32:51;;;;;;;12.95;6.30;;;;;;;15.98;63.71;99634.25;4949765;28;20050;-74
2021/07/01 10:35:19;;;;;;;17.52;6.03;;;;;;;15.98;64.19;99638.72;4970572;28;20111;-75
2021/07/01 10:38:01;;;;;;;11.02;5.63;;;;;;;15.95;63.85;99637.16;4965800;28;20451;-75
2021/07/01 10:40:27;;;;;;;11.98;5.93;;;;;;;15.83;63.17;99649.53;4972343;28;20125;-77
2021/07/01 10:42:56;;;;;;;10.75;7.07;;;;;;;15.73;63.70;99637.03;4970529;28;20041;-76
2021/07/01 10:45:23;;;;;;;11.52;6.93;;;;;;;15.81;64.30;99645.28;4953010;28;20042;-74
2021/07/01 10:47:49;;;;;;;11.25;7.60;;;;;;;15.92;63.98;99645.34;4976069;28;20030;-76
2021/07/01 10:50:21;;;;;;;10.70;5.30;;;;;;;16.07;63.17;99638.03;4978287;28;20038;-77
2021/07/01 10:52:47;;;;;;;13.60;6.35;;;;;;;16.55;62.35;99642.44;4977050;28;20523;-75
2021/07/01 10:55:14;;;;;;;10.40;5.15;;;;;;;16.98;60.88;99642.66;4954870;28;20446;-76
2021/07/01 10:57:59;;;;;;;13.02;5.70;;;;;;;17.30;60.35;99633.94;4990345;28;20038;-75
2021/07/01 11:00:42;;;;;;;11.70;5.70;;;;;;;16.85;60.60;99625.94;4989987;28;20166;-73
2021/07/01 11:03:18;;;;;;;11.73;6.32;;;;;;;16.51;61.51;99625.84;4989457;28;20419;-77
2021/07/01 11:05:44;;;;;;;13.95;7.53;;;;;;;16.15;63.45;99645.47;4979856;28;20058;-74
2021/07/01 11:08:25;;;;;;;11.95;6.55;;;;;;;15.88;64.39;99636.75;4968226;28;20687;-75
2021/07/01 11:10:51;;;;;;;12.82;7.40;;;;;;;15.66;65.15;99634.78;4969191;28;20046;-74
2021/07/01 11:13:17;;;;;;;15.93;7.80;;;;;;;15.60;65.73;99639.69;4934078;28;20047;-73
2021/07/01 11:16:05;;;;;;;13.68;7.75;;;;;;;15.58;65.79;99631.84;4968783;28;20042;-74
2021/07/01 11:18:37;;;;;;;11.48;6.97;;;;;;;15.54;66.21;99638.31;4977724;28;20042;-76
2021/07/01 11:21:13;;;;;;;12.25;8.35;;;;;;;15.59;66.21;99635.34;4988413;28;20038;-73
2021/07/01 11:23:40;;;;;;;17.42;8.02;;;;;;;15.63;65.10;99640.31;4975026;28;20031;-74
2021/07/01 11:26:21;;;;;;;11.68;7.00;;;;;;;15.77;64.53;99643.81;4969034;28;20418;-76
2021/07/01 11:28:47;;;;;;;11.27;7.82;;;;;;;15.99;64.10;99646.56;4968836;28;20042;-73